sensor_id;sensor_type;location;lat;lon;timestamp;pressure;altitude;pressure_sealevel;temperature;humidity
51227;BME280;42714;48.260;10.980;2023-04-27T00:00:09;970.9;;;8.7;80.0
51227;BME280;42714;48.260;10.980;2023-04-27T00:05:10;970.8;;;8.7;80.6
51227;BME280;42714;48.260;10.980;2023-04-27T00:10:11;970.8;;;8.7;81.2
51227;BME280;42714;48.260;10.980;2023-04-27T00:15:12;970.7;;;8.6;82.6
51227;BME280;42714;48.260;10.980;2023-04-27T00:20:13;970.7;;;8.5;85.5
51227;BME280;42714;48.260;10.980;2023-04-27T00:25:14;970.7;;;8.5;86.5
51227;BME280;42714;48.260;10.980;2023-04-27T00:30:15;970.6;;;8.5;87.0
51227;BME280;42714;48.260;10.980;2023-04-27T00:35:16;970.6;;;8.4;86.8
51227;BME280;42714;48.260;10.980;2023-04-27T00:40:19;970.6;;;8.4;85.8
51227;BME280;42714;48.260;10.980;2023-04-27T00:45:18;970.7;;;8.4;85.6
51227;BME280;42714;48.260;10.980;2023-04-27T00:50:21;970.7;;;8.3;85.7
51227;BME280;42714;48.260;10.980;2023-04-27T00:55:21;970.7;;;8.2;86.2
51227;BME280;42714;48.260;10.980;2023-04-27T01:00:21;970.7;;;8.1;87.1
51227;BME280;42714;48.260;10.980;2023-04-27T01:05:23;970.7;;;8.1;88.5
51227;BME280;42714;48.260;10.980;2023-04-27T01:10:23;970.7;;;8.1;89.3
51227;BME280;42714;48.260;10.980;2023-04-27T01:15:24;970.7;;;8.1;90.2
51227;BME280;42714;48.260;10.980;2023-04-27T01:20:25;970.7;;;8.0;90.5
51227;BME280;42714;48.260;10.980;2023-04-27T01:25:26;970.6;;;7.8;91.2
51227;BME280;42714;48.260;10.980;2023-04-27T01:30:27;970.7;;;7.5;92.1
51227;BME280;42714;48.260;10.980;2023-04-27T01:35:28;970.7;;;7.3;93.4
51227;BME280;42714;48.260;10.980;2023-04-27T01:40:29;970.6;;;7.2;95.3
51227;BME280;42714;48.260;10.980;2023-04-27T01:45:30;970.7;;;7.1;96.4
51227;BME280;42714;48.260;10.980;2023-04-27T01:50:31;970.7;;;7.0;97.5
51227;BME280;42714;48.260;10.980;2023-04-27T01:55:32;970.7;;;6.9;97.4
51227;BME280;42714;48.260;10.980;2023-04-27T02:00:33;970.7;;;6.8;98.1
51227;BME280;42714;48.260;10.980;2023-04-27T02:05:34;970.7;;;6.6;98.7
51227;BME280;42714;48.260;10.980;2023-04-27T02:10:35;970.8;;;6.4;99.2
51227;BME280;42714;48.260;10.980;2023-04-27T02:15:36;970.8;;;6.3;99.9
51227;BME280;42714;48.260;10.980;2023-04-27T02:20:37;970.7;;;6.3;100.0
51227;BME280;42714;48.260;10.980;2023-04-27T02:25:38;970.8;;;6.2;100.0
51227;BME280;42714;48.260;10.980;2023-04-27T02:30:39;970.8;;;6.0;100.0
51227;BME280;42714;48.260;10.980;2023-04-27T02:35:40;970.8;;;5.8;100.0
51227;BME280;42714;48.260;10.980;2023-04-27T02:40:41;970.9;;;5.7;100.0
51227;BME280;42714;48.260;10.980;2023-04-27T02:45:42;970.9;;;5.6;100.0
51227;BME280;42714;48.260;10.980;2023-04-27T02:50:44;970.8;;;5.5;100.0
51227;BME280;42714;48.260;10.980;2023-04-27T02:55:45;970.9;;;5.4;100.0
51227;BME280;42714;48.260;10.980;2023-04-27T03:00:45;971.0;;;5.3;100.0
51227;BME280;42714;48.260;10.980;2023-04-27T03:05:46;971.0;;;5.0;100.0
51227;BME280;42714;48.260;10.980;2023-04-27T03:10:47;971.0;;;4.9;100.0
51227;BME280;42714;48.260;10.980;2023-04-27T03:15:48;971.0;;;4.8;100.0
51227;BME280;42714;48.260;10.980;2023-04-27T03:20:49;971.0;;;4.8;100.0
51227;BME280;42714;48.260;10.980;2023-04-27T03:25:50;971.1;;;4.6;100.0
51227;BME280;42714;48.260;10.980;2023-04-27T03:30:51;971.1;;;4.5;100.0
51227;BME280;42714;48.260;10.980;2023-04-27T03:35:53;971.2;;;4.4;100.0
51227;BME280;42714;48.260;10.980;2023-04-27T03:40:53;971.2;;;4.5;100.0
51227;BME280;42714;48.260;10.980;2023-04-27T03:45:54;971.2;;;4.5;100.0
51227;BME280;42714;48.260;10.980;2023-04-27T03:50:55;971.2;;;4.6;100.0
51227;BME280;42714;48.260;10.980;2023-04-27T03:55:56;971.4;;;4.6;100.0
51227;BME280;42714;48.260;10.980;2023-04-27T04:00:57;971.4;;;4.7;100.0
51227;BME280;42714;48.260;10.980;2023-04-27T04:05:58;971.4;;;4.8;100.0
51227;BME280;42714;48.260;10.980;2023-04-27T04:10:59;971.4;;;4.8;100.0
51227;BME280;42714;48.260;10.980;2023-04-27T04:16:01;971.4;;;4.9;100.0
51227;BME280;42714;48.260;10.980;2023-04-27T04:21:02;971.5;;;4.8;100.0
51227;BME280;42714;48.260;10.980;2023-04-27T04:26:03;971.5;;;4.9;100.0
51227;BME280;42714;48.260;10.980;2023-04-27T04:31:03;971.6;;;5.0;100.0
51227;BME280;42714;48.260;10.980;2023-04-27T04:36:05;971.6;;;5.0;100.0
51227;BME280;42714;48.260;10.980;2023-04-27T04:41:05;971.6;;;5.2;100.0
51227;BME280;42714;48.260;10.980;2023-04-27T04:46:06;971.6;;;5.3;100.0
51227;BME280;42714;48.260;10.980;2023-04-27T04:51:07;971.6;;;5.4;100.0
51227;BME280;42714;48.260;10.980;2023-04-27T04:56:09;971.7;;;5.4;100.0
51227;BME280;42714;48.260;10.980;2023-04-27T05:01:09;971.7;;;5.6;100.0
51227;BME280;42714;48.260;10.980;2023-04-27T05:06:10;971.7;;;5.9;100.0
51227;BME280;42714;48.260;10.980;2023-04-27T05:11:11;971.7;;;6.2;100.0
51227;BME280;42714;48.260;10.980;2023-04-27T05:16:12;971.6;;;6.2;100.0
51227;BME280;42714;48.260;10.980;2023-04-27T05:21:14;971.7;;;6.3;100.0
51227;BME280;42714;48.260;10.980;2023-04-27T05:26:15;971.9;;;6.7;100.0
51227;BME280;42714;48.260;10.980;2023-04-27T05:31:16;971.9;;;6.9;100.0
51227;BME280;42714;48.260;10.980;2023-04-27T05:36:16;971.8;;;7.2;100.0
51227;BME280;42714;48.260;10.980;2023-04-27T05:41:17;971.8;;;7.6;100.0
51227;BME280;42714;48.260;10.980;2023-04-27T05:46:19;971.7;;;8.1;100.0
51227;BME280;42714;48.260;10.980;2023-04-27T05:51:20;971.8;;;8.3;97.2
51227;BME280;42714;48.260;10.980;2023-04-27T05:56:21;971.7;;;8.4;96.2
51227;BME280;42714;48.260;10.980;2023-04-27T06:01:22;971.8;;;8.5;93.5
51227;BME280;42714;48.260;10.980;2023-04-27T06:06:23;971.8;;;8.6;88.7
51227;BME280;42714;48.260;10.980;2023-04-27T06:11:24;971.9;;;8.4;90.8
51227;BME280;42714;48.260;10.980;2023-04-27T06:16:25;971.8;;;8.8;85.4
51227;BME280;42714;48.260;10.980;2023-04-27T06:21:26;971.8;;;8.7;87.5
51227;BME280;42714;48.260;10.980;2023-04-27T06:26:27;971.9;;;8.8;87.3
51227;BME280;42714;48.260;10.980;2023-04-27T06:31:28;972.0;;;8.9;86.1
51227;BME280;42714;48.260;10.980;2023-04-27T06:36:29;972.0;;;9.0;86.1
51227;BME280;42714;48.260;10.980;2023-04-27T06:41:30;972.0;;;9.4;85.8
51227;BME280;42714;48.260;10.980;2023-04-27T06:46:31;972.0;;;9.4;85.3
51227;BME280;42714;48.260;10.980;2023-04-27T06:51:32;971.9;;;9.8;83.5
51227;BME280;42714;48.260;10.980;2023-04-27T06:56:33;972.0;;;10.1;81.5
51227;BME280;42714;48.260;10.980;2023-04-27T07:01:34;972.0;;;10.4;81.0
51227;BME280;42714;48.260;10.980;2023-04-27T07:06:35;972.0;;;10.6;78.6
51227;BME280;42714;48.260;10.980;2023-04-27T07:11:36;972.0;;;10.8;77.7
51227;BME280;42714;48.260;10.980;2023-04-27T07:16:37;972.0;;;11.2;75.7
51227;BME280;42714;48.260;10.980;2023-04-27T07:21:38;972.0;;;11.5;72.2
51227;BME280;42714;48.260;10.980;2023-04-27T07:26:39;971.9;;;11.9;71.2
51227;BME280;42714;48.260;10.980;2023-04-27T07:31:40;971.9;;;12.0;68.3
51227;BME280;42714;48.260;10.980;2023-04-27T07:36:41;971.9;;;12.6;68.9
51227;BME280;42714;48.260;10.980;2023-04-27T07:41:42;972.0;;;12.8;65.9
51227;BME280;42714;48.260;10.980;2023-04-27T07:46:43;972.0;;;13.2;63.9
51227;BME280;42714;48.260;10.980;2023-04-27T07:51:44;971.9;;;13.5;61.1
51227;BME280;42714;48.260;10.980;2023-04-27T07:56:45;972.0;;;14.2;58.4
51227;BME280;42714;48.260;10.980;2023-04-27T08:01:46;972.0;;;14.6;57.5
51227;BME280;42714;48.260;10.980;2023-04-27T08:06:47;972.1;;;14.8;54.2
51227;BME280;42714;48.260;10.980;2023-04-27T08:11:48;972.1;;;15.0;54.5
51227;BME280;42714;48.260;10.980;2023-04-27T08:16:49;972.1;;;15.2;51.4
51227;BME280;42714;48.260;10.980;2023-04-27T08:21:50;972.0;;;16.2;51.6
51227;BME280;42714;48.260;10.980;2023-04-27T08:26:51;971.9;;;17.4;46.7
51227;BME280;42714;48.260;10.980;2023-04-27T08:31:52;972.0;;;17.3;45.8
51227;BME280;42714;48.260;10.980;2023-04-27T08:36:53;972.0;;;17.9;45.2
51227;BME280;42714;48.260;10.980;2023-04-27T08:41:54;971.9;;;18.9;43.6
51227;BME280;42714;48.260;10.980;2023-04-27T08:46:55;971.8;;;20.2;40.7
51227;BME280;42714;48.260;10.980;2023-04-27T08:51:56;971.8;;;20.3;38.1
51227;BME280;42714;48.260;10.980;2023-04-27T08:56:57;971.9;;;20.2;40.4
51227;BME280;42714;48.260;10.980;2023-04-27T09:01:58;971.8;;;21.7;36.6
51227;BME280;42714;48.260;10.980;2023-04-27T09:07:08;971.8;;;22.5;36.0
51227;BME280;42714;48.260;10.980;2023-04-27T09:12:00;971.7;;;22.9;34.9
51227;BME280;42714;48.260;10.980;2023-04-27T09:17:01;971.7;;;23.3;32.3
51227;BME280;42714;48.260;10.980;2023-04-27T09:22:06;971.6;;;22.0;34.5
51227;BME280;42714;48.260;10.980;2023-04-27T09:27:03;971.6;;;23.9;30.7
51227;BME280;42714;48.260;10.980;2023-04-27T09:32:14;971.6;;;23.1;30.8
51227;BME280;42714;48.260;10.980;2023-04-27T09:37:05;971.6;;;22.9;30.5
51227;BME280;42714;48.260;10.980;2023-04-27T09:42:06;971.6;;;23.9;28.9
51227;BME280;42714;48.260;10.980;2023-04-27T09:47:07;971.5;;;24.9;25.9
51227;BME280;42714;48.260;10.980;2023-04-27T09:52:08;971.5;;;25.2;24.6
51227;BME280;42714;48.260;10.980;2023-04-27T09:57:13;971.4;;;26.0;25.7
51227;BME280;42714;48.260;10.980;2023-04-27T10:02:10;971.3;;;27.3;23.8
51227;BME280;42714;48.260;10.980;2023-04-27T10:07:12;971.3;;;26.0;25.0
51227;BME280;42714;48.260;10.980;2023-04-27T10:12:15;971.3;;;25.3;25.9
51227;BME280;42714;48.260;10.980;2023-04-27T10:17:13;971.2;;;26.5;24.4
51227;BME280;42714;48.260;10.980;2023-04-27T10:22:14;971.2;;;26.8;23.0
51227;BME280;42714;48.260;10.980;2023-04-27T10:27:15;971.2;;;29.2;21.6
51227;BME280;42714;48.260;10.980;2023-04-27T10:32:20;971.2;;;28.4;22.2
51227;BME280;42714;48.260;10.980;2023-04-27T10:37:17;971.2;;;29.3;21.7
51227;BME280;42714;48.260;10.980;2023-04-27T10:47:19;971.2;;;28.1;23.0
51227;BME280;42714;48.260;10.980;2023-04-27T10:52:20;971.2;;;28.6;21.9
51227;BME280;42714;48.260;10.980;2023-04-27T10:57:21;971.2;;;27.4;24.9
51227;BME280;42714;48.260;10.980;2023-04-27T11:02:24;971.1;;;29.2;22.0
51227;BME280;42714;48.260;10.980;2023-04-27T11:07:26;971.0;;;29.8;20.3
51227;BME280;42714;48.260;10.980;2023-04-27T11:12:24;970.9;;;29.2;21.4
51227;BME280;42714;48.260;10.980;2023-04-27T11:17:27;971.0;;;29.8;21.6
51227;BME280;42714;48.260;10.980;2023-04-27T11:22:26;971.1;;;28.9;22.4
51227;BME280;42714;48.260;10.980;2023-04-27T11:27:35;971.0;;;29.4;20.7
51227;BME280;42714;48.260;10.980;2023-04-27T11:32:28;971.1;;;27.2;23.0
51227;BME280;42714;48.260;10.980;2023-04-27T11:37:29;971.1;;;25.7;26.0
51227;BME280;42714;48.260;10.980;2023-04-27T11:42:30;971.1;;;24.9;27.6
51227;BME280;42714;48.260;10.980;2023-04-27T11:47:31;971.1;;;26.0;26.2
51227;BME280;42714;48.260;10.980;2023-04-27T11:52:33;971.1;;;24.5;26.5
51227;BME280;42714;48.260;10.980;2023-04-27T11:57:34;971.2;;;23.1;30.1
51227;BME280;42714;48.260;10.980;2023-04-27T12:02:34;971.1;;;24.0;29.7
51227;BME280;42714;48.260;10.980;2023-04-27T12:07:35;971.1;;;26.5;25.3
51227;BME280;42714;48.260;10.980;2023-04-27T12:12:36;971.0;;;27.1;23.8
51227;BME280;42714;48.260;10.980;2023-04-27T12:17:37;970.9;;;27.1;25.5
51227;BME280;42714;48.260;10.980;2023-04-27T12:22:39;970.8;;;29.2;22.4
51227;BME280;42714;48.260;10.980;2023-04-27T12:27:39;970.9;;;30.1;20.7
51227;BME280;42714;48.260;10.980;2023-04-27T12:32:40;970.9;;;29.8;21.1
51227;BME280;42714;48.260;10.980;2023-04-27T12:37:41;970.9;;;30.1;21.6
51227;BME280;42714;48.260;10.980;2023-04-27T12:42:42;970.9;;;28.4;22.7
51227;BME280;42714;48.260;10.980;2023-04-27T12:47:43;970.9;;;26.9;23.6
51227;BME280;42714;48.260;10.980;2023-04-27T12:52:44;970.9;;;25.7;26.8
51227;BME280;42714;48.260;10.980;2023-04-27T12:57:45;970.9;;;26.9;25.0
51227;BME280;42714;48.260;10.980;2023-04-27T13:02:46;970.8;;;28.1;24.5
51227;BME280;42714;48.260;10.980;2023-04-27T13:07:47;970.9;;;27.8;23.9
51227;BME280;42714;48.260;10.980;2023-04-27T13:12:48;970.9;;;25.3;27.6
51227;BME280;42714;48.260;10.980;2023-04-27T13:17:49;971.0;;;24.0;28.5
51227;BME280;42714;48.260;10.980;2023-04-27T13:22:50;971.0;;;22.3;30.1
51227;BME280;42714;48.260;10.980;2023-04-27T13:27:51;971.0;;;21.1;32.1
51227;BME280;42714;48.260;10.980;2023-04-27T13:32:52;970.9;;;20.8;32.3
51227;BME280;42714;48.260;10.980;2023-04-27T13:37:53;971.0;;;20.2;34.7
51227;BME280;42714;48.260;10.980;2023-04-27T13:42:54;970.9;;;19.9;34.8
51227;BME280;42714;48.260;10.980;2023-04-27T13:47:55;970.8;;;20.4;34.3
51227;BME280;42714;48.260;10.980;2023-04-27T13:52:56;970.7;;;20.5;34.5
51227;BME280;42714;48.260;10.980;2023-04-27T13:57:57;970.7;;;22.1;32.3
51227;BME280;42714;48.260;10.980;2023-04-27T14:02:58;970.7;;;22.4;30.8
51227;BME280;42714;48.260;10.980;2023-04-27T14:07:59;970.7;;;22.7;29.6
51227;BME280;42714;48.260;10.980;2023-04-27T14:13:00;970.6;;;22.0;31.2
51227;BME280;42714;48.260;10.980;2023-04-27T14:18:02;970.6;;;20.6;32.6
51227;BME280;42714;48.260;10.980;2023-04-27T14:23:03;970.6;;;20.6;32.7
51227;BME280;42714;48.260;10.980;2023-04-27T14:28:04;970.6;;;20.8;34.0
51227;BME280;42714;48.260;10.980;2023-04-27T14:33:04;970.6;;;20.5;33.7
51227;BME280;42714;48.260;10.980;2023-04-27T14:38:05;970.5;;;20.2;34.6
51227;BME280;42714;48.260;10.980;2023-04-27T14:43:06;970.5;;;20.4;35.1
51227;BME280;42714;48.260;10.980;2023-04-27T14:48:07;970.5;;;20.3;35.3
51227;BME280;42714;48.260;10.980;2023-04-27T14:53:08;970.6;;;19.7;36.5
51227;BME280;42714;48.260;10.980;2023-04-27T14:58:09;970.6;;;19.2;36.5
51227;BME280;42714;48.260;10.980;2023-04-27T15:03:10;970.6;;;19.2;37.5
51227;BME280;42714;48.260;10.980;2023-04-27T15:08:11;970.6;;;19.9;35.9
51227;BME280;42714;48.260;10.980;2023-04-27T15:13:12;970.5;;;20.8;34.4
51227;BME280;42714;48.260;10.980;2023-04-27T15:18:13;970.4;;;21.2;33.5
51227;BME280;42714;48.260;10.980;2023-04-27T15:23:14;970.4;;;20.8;34.1
51227;BME280;42714;48.260;10.980;2023-04-27T15:28:15;970.5;;;20.0;36.7
51227;BME280;42714;48.260;10.980;2023-04-27T15:33:16;970.6;;;19.0;38.9
51227;BME280;42714;48.260;10.980;2023-04-27T15:38:18;970.6;;;18.7;41.0
51227;BME280;42714;48.260;10.980;2023-04-27T15:43:18;970.6;;;18.4;40.1
51227;BME280;42714;48.260;10.980;2023-04-27T15:48:19;970.6;;;18.5;40.3
51227;BME280;42714;48.260;10.980;2023-04-27T15:53:20;970.6;;;18.3;41.2
51227;BME280;42714;48.260;10.980;2023-04-27T15:58:21;970.6;;;17.9;40.9
51227;BME280;42714;48.260;10.980;2023-04-27T16:03:22;970.5;;;17.9;41.8
51227;BME280;42714;48.260;10.980;2023-04-27T16:08:23;970.5;;;17.8;41.8
51227;BME280;42714;48.260;10.980;2023-04-27T16:13:24;970.4;;;17.5;41.8
51227;BME280;42714;48.260;10.980;2023-04-27T16:18:25;970.4;;;17.3;43.2
51227;BME280;42714;48.260;10.980;2023-04-27T16:23:26;970.3;;;17.1;43.9
51227;BME280;42714;48.260;10.980;2023-04-27T16:28:27;970.3;;;17.1;43.5
51227;BME280;42714;48.260;10.980;2023-04-27T16:33:28;970.3;;;17.2;44.1
51227;BME280;42714;48.260;10.980;2023-04-27T16:38:29;970.3;;;17.3;42.7
51227;BME280;42714;48.260;10.980;2023-04-27T16:43:30;970.3;;;17.2;43.5
51227;BME280;42714;48.260;10.980;2023-04-27T16:48:31;970.2;;;17.1;43.8
51227;BME280;42714;48.260;10.980;2023-04-27T16:53:32;970.2;;;16.8;44.1
51227;BME280;42714;48.260;10.980;2023-04-27T16:58:33;970.2;;;16.6;44.5
51227;BME280;42714;48.260;10.980;2023-04-27T17:03:34;970.3;;;16.6;44.9
51227;BME280;42714;48.260;10.980;2023-04-27T17:08:35;970.3;;;16.6;45.3
51227;BME280;42714;48.260;10.980;2023-04-27T17:13:36;970.3;;;16.5;45.3
51227;BME280;42714;48.260;10.980;2023-04-27T17:18:38;970.3;;;16.4;45.2
51227;BME280;42714;48.260;10.980;2023-04-27T17:23:38;970.3;;;16.2;45.5
51227;BME280;42714;48.260;10.980;2023-04-27T17:28:39;970.3;;;16.3;45.8
51227;BME280;42714;48.260;10.980;2023-04-27T17:33:40;970.4;;;15.9;47.3
51227;BME280;42714;48.260;10.980;2023-04-27T17:38:41;970.4;;;15.7;46.7
51227;BME280;42714;48.260;10.980;2023-04-27T17:43:42;970.4;;;15.5;47.8
51227;BME280;42714;48.260;10.980;2023-04-27T17:48:43;970.4;;;15.4;47.9
51227;BME280;42714;48.260;10.980;2023-04-27T17:53:44;970.4;;;15.4;49.0
51227;BME280;42714;48.260;10.980;2023-04-27T17:58:45;970.4;;;15.1;50.6
51227;BME280;42714;48.260;10.980;2023-04-27T18:03:46;970.4;;;14.9;52.5
51227;BME280;42714;48.260;10.980;2023-04-27T18:08:47;970.4;;;14.8;54.4
51227;BME280;42714;48.260;10.980;2023-04-27T18:13:48;970.4;;;14.6;56.0
51227;BME280;42714;48.260;10.980;2023-04-27T18:18:49;970.4;;;14.5;56.9
51227;BME280;42714;48.260;10.980;2023-04-27T18:23:50;970.5;;;14.2;58.4
51227;BME280;42714;48.260;10.980;2023-04-27T18:28:51;970.6;;;13.9;60.3
51227;BME280;42714;48.260;10.980;2023-04-27T18:33:52;970.6;;;13.7;63.4
51227;BME280;42714;48.260;10.980;2023-04-27T18:38:54;970.6;;;13.6;66.1
51227;BME280;42714;48.260;10.980;2023-04-27T18:44:01;970.7;;;13.4;67.9
51227;BME280;42714;48.260;10.980;2023-04-27T18:48:55;970.7;;;13.2;70.2
51227;BME280;42714;48.260;10.980;2023-04-27T18:53:56;970.7;;;13.0;73.1
51227;BME280;42714;48.260;10.980;2023-04-27T18:58:57;970.7;;;12.8;75.4
51227;BME280;42714;48.260;10.980;2023-04-27T19:03:58;970.7;;;12.7;76.6
51227;BME280;42714;48.260;10.980;2023-04-27T19:08:59;970.7;;;12.6;78.2
51227;BME280;42714;48.260;10.980;2023-04-27T19:14:00;970.7;;;12.5;80.4
51227;BME280;42714;48.260;10.980;2023-04-27T19:19:01;970.7;;;12.2;81.9
51227;BME280;42714;48.260;10.980;2023-04-27T19:24:02;970.7;;;12.1;83.8
51227;BME280;42714;48.260;10.980;2023-04-27T19:29:03;970.8;;;12.0;84.9
51227;BME280;42714;48.260;10.980;2023-04-27T19:34:04;970.9;;;11.8;86.7
51227;BME280;42714;48.260;10.980;2023-04-27T19:39:05;970.8;;;11.7;87.6
51227;BME280;42714;48.260;10.980;2023-04-27T19:44:06;970.8;;;11.5;89.3
51227;BME280;42714;48.260;10.980;2023-04-27T19:49:07;970.9;;;11.4;90.4
51227;BME280;42714;48.260;10.980;2023-04-27T19:54:08;970.9;;;11.3;91.8
51227;BME280;42714;48.260;10.980;2023-04-27T19:59:09;970.9;;;11.2;93.3
51227;BME280;42714;48.260;10.980;2023-04-27T20:04:11;970.9;;;11.1;93.4
51227;BME280;42714;48.260;10.980;2023-04-27T20:09:11;970.9;;;11.0;94.5
51227;BME280;42714;48.260;10.980;2023-04-27T20:14:12;970.8;;;10.9;96.5
51227;BME280;42714;48.260;10.980;2023-04-27T20:19:13;970.8;;;10.9;97.2
51227;BME280;42714;48.260;10.980;2023-04-27T20:24:14;970.8;;;10.8;98.2
51227;BME280;42714;48.260;10.980;2023-04-27T20:29:15;970.7;;;10.7;99.1
51227;BME280;42714;48.260;10.980;2023-04-27T20:34:16;970.7;;;10.6;100.0
51227;BME280;42714;48.260;10.980;2023-04-27T20:39:18;970.6;;;10.4;100.0
51227;BME280;42714;48.260;10.980;2023-04-27T20:44:18;970.6;;;10.3;100.0
51227;BME280;42714;48.260;10.980;2023-04-27T20:49:19;970.6;;;10.2;100.0
51227;BME280;42714;48.260;10.980;2023-04-27T20:54:20;970.6;;;10.1;100.0
51227;BME280;42714;48.260;10.980;2023-04-27T20:59:21;970.5;;;10.1;100.0
51227;BME280;42714;48.260;10.980;2023-04-27T21:04:22;970.5;;;10.1;100.0
51227;BME280;42714;48.260;10.980;2023-04-27T21:09:23;970.5;;;10.2;100.0
51227;BME280;42714;48.260;10.980;2023-04-27T21:14:24;970.5;;;10.0;100.0
51227;BME280;42714;48.260;10.980;2023-04-27T21:19:25;970.5;;;9.9;100.0
51227;BME280;42714;48.260;10.980;2023-04-27T21:24:26;970.6;;;9.9;100.0
51227;BME280;42714;48.260;10.980;2023-04-27T21:29:27;970.5;;;9.8;100.0
51227;BME280;42714;48.260;10.980;2023-04-27T21:34:29;970.5;;;9.6;100.0
51227;BME280;42714;48.260;10.980;2023-04-27T21:39:29;970.4;;;9.6;100.0
51227;BME280;42714;48.260;10.980;2023-04-27T21:44:30;970.4;;;9.7;100.0
51227;BME280;42714;48.260;10.980;2023-04-27T21:49:31;970.4;;;9.6;100.0
51227;BME280;42714;48.260;10.980;2023-04-27T21:54:32;970.3;;;9.6;100.0
51227;BME280;42714;48.260;10.980;2023-04-27T21:59:33;970.3;;;9.6;100.0
51227;BME280;42714;48.260;10.980;2023-04-27T22:04:35;970.3;;;9.6;100.0
51227;BME280;42714;48.260;10.980;2023-04-27T22:09:36;970.2;;;9.9;100.0
51227;BME280;42714;48.260;10.980;2023-04-27T22:14:36;970.2;;;9.9;100.0
51227;BME280;42714;48.260;10.980;2023-04-27T22:19:37;970.3;;;9.9;100.0
51227;BME280;42714;48.260;10.980;2023-04-27T22:24:39;970.3;;;10.0;100.0
51227;BME280;42714;48.260;10.980;2023-04-27T22:29:40;970.2;;;10.0;100.0
51227;BME280;42714;48.260;10.980;2023-04-27T22:34:41;970.2;;;9.9;100.0
51227;BME280;42714;48.260;10.980;2023-04-27T22:39:42;970.2;;;9.8;100.0
51227;BME280;42714;48.260;10.980;2023-04-27T22:44:43;970.1;;;9.9;100.0
51227;BME280;42714;48.260;10.980;2023-04-27T22:49:44;970.1;;;9.7;100.0
51227;BME280;42714;48.260;10.980;2023-04-27T22:54:45;970.1;;;9.6;100.0
51227;BME280;42714;48.260;10.980;2023-04-27T22:59:46;970.0;;;9.6;100.0
51227;BME280;42714;48.260;10.980;2023-04-27T23:04:47;970.0;;;9.6;100.0
51227;BME280;42714;48.260;10.980;2023-04-27T23:09:48;969.9;;;9.5;100.0
51227;BME280;42714;48.260;10.980;2023-04-27T23:14:49;969.9;;;9.5;100.0
51227;BME280;42714;48.260;10.980;2023-04-27T23:19:50;970.0;;;9.3;100.0
51227;BME280;42714;48.260;10.980;2023-04-27T23:24:51;970.0;;;9.3;100.0
51227;BME280;42714;48.260;10.980;2023-04-27T23:29:52;969.9;;;9.4;100.0
51227;BME280;42714;48.260;10.980;2023-04-27T23:34:53;969.9;;;9.2;100.0
51227;BME280;42714;48.260;10.980;2023-04-27T23:39:54;969.9;;;9.3;100.0
51227;BME280;42714;48.260;10.980;2023-04-27T23:44:55;969.9;;;9.2;100.0
51227;BME280;42714;48.260;10.980;2023-04-27T23:49:56;970.0;;;9.3;100.0
51227;BME280;42714;48.260;10.980;2023-04-27T23:54:57;969.9;;;9.2;100.0
51227;BME280;42714;48.260;10.980;2023-04-27T23:59:58;969.8;;;9.2;100.0
